Time;durP1;ratioP1;P1;durP2;ratioP2;P2;SDS_P1;SDS_P2;PMS_P1;PMS_P2;Temp;Humidity;BMP_temperature;BMP_pressure;BME280_temperature;BME280_humidity;BME280_pressure;Samples;Min_cycle;Max_cycle;Signal;HPM_P1;HPM_P2
2023/08/15 00:01:01;;;;;;;6.30;4.60;;;;;;;24.63;38.48;101179.79;108062;1284;21989;-69
2023/08/15 00:03:27;;;;;;;7.30;4.20;;;;;;;24.61;38.61;101180.60;108050;1282;21996;-70
2023/08/15 00:05:52;;;;;;;6.00;4.00;;;;;;;24.58;38.67;101175.94;108063;1280;21986;-71
2023/08/15 00:08:18;;;;;;;7.20;3.90;;;;;;;24.55;38.70;101177.75;107995;1279;24112;-59
2023/08/15 00:10:44;;;;;;;7.40;4.80;;;;;;;24.53;38.76;101178.20;108090;1279;21984;-70
2023/08/15 00:13:09;;;;;;;6.30;4.30;;;;;;;24.51;38.74;101183.67;108034;1283;21997;-60
2023/08/15 00:15:35;;;;;;;8.80;4.50;;;;;;;24.48;38.78;101183.83;108071;1278;22006;-70
2023/08/15 00:18:01;;;;;;;10.00;4.20;;;;;;;24.45;38.85;101184.34;108082;1279;21987;-59
2023/08/15 00:20:26;;;;;;;5.60;4.40;;;;;;;24.43;38.83;101185.02;108081;1276;21986;-59
2023/08/15 00:22:52;;;;;;;6.90;4.60;;;;;;;24.41;38.76;101185.52;108136;1283;21997;-58
2023/08/15 00:25:18;;;;;;;9.60;4.90;;;;;;;24.40;38.99;101189.91;108057;1276;21997;-58
2023/08/15 00:27:43;;;;;;;9.00;5.00;;;;;;;24.37;38.98;101190.20;108268;1279;21989;-58
2023/08/15 00:30:09;;;;;;;9.30;4.50;;;;;;;24.34;39.08;101185.17;108221;1282;21989;-57
2023/08/15 00:32:38;;;;;;;7.40;4.40;;;;;;;24.32;39.06;101183.31;108073;1283;21987;-58
2023/08/15 00:35:04;;;;;;;6.30;3.90;;;;;;;24.33;39.26;101183.11;108204;1279;21997;-70
2023/08/15 00:37:31;;;;;;;7.10;4.40;;;;;;;24.34;39.22;101178.75;108066;1285;21993;-70
2023/08/15 00:39:57;;;;;;;9.50;4.10;;;;;;;24.34;39.06;101179.27;108162;1279;22023;-71
2023/08/15 00:42:22;;;;;;;7.90;4.70;;;;;;;24.34;39.20;101180.52;108052;1284;24042;-58
2023/08/15 00:44:48;;;;;;;6.60;4.50;;;;;;;24.34;39.13;101180.34;108049;1284;21986;-60
2023/08/15 00:47:13;;;;;;;6.70;4.40;;;;;;;24.34;39.14;101177.30;108071;1273;21989;-58
2023/08/15 00:49:41;;;;;;;9.90;5.20;;;;;;;24.32;39.06;101174.88;108256;1284;21990;-70
2023/08/15 00:52:06;;;;;;;7.30;4.90;;;;;;;24.30;39.23;101175.53;108189;1285;22455;-58
2023/08/15 00:54:32;;;;;;;8.70;5.20;;;;;;;24.28;39.34;101174.21;108211;1281;22048;-58
2023/08/15 00:56:57;;;;;;;7.70;4.80;;;;;;;24.27;39.30;101173.04;108232;1279;22042;-58
2023/08/15 00:59:23;;;;;;;7.40;4.80;;;;;;;24.26;39.43;101172.18;108114;1283;21995;-70
2023/08/15 01:01:49;;;;;;;8.50;4.80;;;;;;;24.24;39.48;101164.98;108158;1283;21992;-70
2023/08/15 01:04:14;;;;;;;8.50;4.30;;;;;;;24.22;39.51;101160.24;108299;1279;22453;-59
2023/08/15 01:06:40;;;;;;;8.10;4.30;;;;;;;24.22;39.49;101160.23;108055;1284;21989;-70
2023/08/15 01:09:06;;;;;;;7.20;4.60;;;;;;;24.22;39.69;101159.70;108127;1279;22006;-70
2023/08/15 01:11:35;;;;;;;7.40;4.60;;;;;;;24.21;39.59;101161.38;108359;1277;21987;-70
2023/08/15 01:14:03;;;;;;;10.70;4.80;;;;;;;24.19;39.59;101159.84;108217;1273;162515;-70
2023/08/15 01:16:33;;;;;;;9.70;5.60;;;;;;;24.17;39.70;101161.05;108102;1283;21987;-70
2023/08/15 01:19:06;;;;;;;8.80;5.10;;;;;;;24.15;39.77;101164.06;108336;1279;21991;-70
2023/08/15 01:21:39;;;;;;;6.20;4.80;;;;;;;24.12;39.56;101161.71;108354;1283;21987;-69
2023/08/15 01:24:05;;;;;;;7.20;4.80;;;;;;;24.09;39.74;101159.20;108345;1283;22469;-58
2023/08/15 01:26:30;;;;;;;7.10;4.50;;;;;;;24.07;39.71;101153.38;108326;1277;21998;-71
2023/08/15 01:28:56;;;;;;;8.30;5.10;;;;;;;24.05;39.73;101149.17;108303;1283;22059;-58
2023/08/15 01:31:28;;;;;;;6.60;4.30;;;;;;;24.04;39.89;101147.10;108334;1279;21987;-58
2023/08/15 01:34:02;;;;;;;7.60;4.60;;;;;;;24.03;39.94;101143.56;108310;1280;22015;-59
2023/08/15 01:36:32;;;;;;;9.20;4.80;;;;;;;24.00;39.91;101143.20;108309;1283;22003;-70
2023/08/15 01:39:02;;;;;;;9.80;5.70;;;;;;;23.98;39.95;101141.31;108348;1278;21993;-62
2023/08/15 01:41:29;;;;;;;7.50;5.40;;;;;;;23.97;39.96;101140.14;108351;1280;21989;-58
2023/08/15 01:43:54;;;;;;;8.20;5.70;;;;;;;23.95;39.87;101137.90;108354;1278;22045;-70
2023/08/15 01:46:20;;;;;;;7.70;5.10;;;;;;;23.92;40.04;101136.63;108243;1282;21997;-59
2023/08/15 01:48:45;;;;;;;6.50;4.30;;;;;;;23.87;40.23;101139.98;108045;1280;21990;-57
2023/08/15 01:51:11;;;;;;;8.20;4.00;;;;;;;23.83;40.23;101145.58;108054;1283;21983;-69
2023/08/15 01:53:37;;;;;;;7.30;4.50;;;;;;;23.79;40.16;101145.23;108114;1279;21984;-59
2023/08/15 01:56:03;;;;;;;10.10;4.80;;;;;;;23.78;40.28;101138.50;108289;1276;21979;-59
2023/08/15 01:58:29;;;;;;;9.10;4.70;;;;;;;23.78;40.37;101143.88;108352;1283;21984;-57
2023/08/15 02:00:54;;;;;;;10.40;5.10;;;;;;;23.78;40.50;101150.67;108324;1277;21983;-57
2023/08/15 02:03:20;;;;;;;9.70;5.10;;;;;;;23.78;40.53;101151.73;108306;1273;21982;-57
2023/08/15 02:05:46;;;;;;;10.90;5.10;;;;;;;23.77;40.51;101154.31;108319;1283;21981;-57
2023/08/15 02:08:11;;;;;;;10.10;5.20;;;;;;;23.76;40.63;101152.20;108356;1273;22012;-57
2023/08/15 02:10:37;;;;;;;9.00;5.10;;;;;;;23.73;40.54;101148.45;108157;1279;22029;-69
2023/08/15 02:13:02;;;;;;;6.40;4.40;;;;;;;23.71;40.66;101146.23;108283;1283;21987;-57
2023/08/15 02:15:28;;;;;;;7.40;4.30;;;;;;;23.70;40.66;101145.55;108290;1280;21987;-68
2023/08/15 02:17:54;;;;;;;9.30;4.60;;;;;;;23.69;40.81;101145.98;108211;1277;21976;-71
2023/08/15 02:20:19;;;;;;;6.30;4.50;;;;;;;23.67;40.82;101147.36;108047;1284;21994;-71
2023/08/15 02:22:45;;;;;;;7.30;4.80;;;;;;;23.63;40.98;101148.09;108043;1284;21994;-70
2023/08/15 02:25:10;;;;;;;7.90;5.10;;;;;;;23.57;40.88;101148.58;108123;1278;21995;-59
2023/08/15 02:27:36;;;;;;;10.60;5.20;;;;;;;23.54;40.95;101152.16;108174;1284;21976;-71
2023/08/15 02:30:03;;;;;;;8.20;5.30;;;;;;;23.51;41.07;101147.47;108313;1279;21999;-59
2023/08/15 02:32:29;;;;;;;9.40;5.10;;;;;;;23.48;41.01;101151.42;108286;1278;21992;-71
2023/08/15 02:34:54;;;;;;;6.70;5.10;;;;;;;23.44;41.19;101152.50;108112;1276;22463;-71
2023/08/15 02:37:20;;;;;;;7.80;4.70;;;;;;;23.43;41.21;101153.11;108071;1279;21991;-71
2023/08/15 02:39:45;;;;;;;8.20;5.20;;;;;;;23.42;41.26;101151.54;108114;1279;21984;-72
2023/08/15 02:42:11;;;;;;;10.10;5.00;;;;;;;23.41;41.29;101156.09;108068;1277;21997;-71
2023/08/15 02:44:36;;;;;;;7.90;5.00;;;;;;;23.39;41.33;101155.46;108075;1279;21987;-60
2023/08/15 02:47:02;;;;;;;15.00;5.80;;;;;;;23.37;41.28;101157.55;108109;1273;21998;-59
2023/08/15 02:49:28;;;;;;;8.30;5.40;;;;;;;23.35;41.36;101162.52;108134;1283;21991;-71
2023/08/15 02:51:53;;;;;;;10.20;5.50;;;;;;;23.30;41.26;101164.16;108096;1279;21980;-58
2023/08/15 02:54:19;;;;;;;8.60;5.70;;;;;;;23.27;41.42;101162.71;108116;1279;21985;-59
2023/08/15 02:56:44;;;;;;;12.10;5.50;;;;;;;23.26;41.70;101158.13;108165;1280;21982;-59
2023/08/15 02:59:10;;;;;;;11.50;6.00;;;;;;;23.24;41.78;101153.55;108192;1273;21984;-72
2023/08/15 03:01:36;;;;;;;13.70;5.30;;;;;;;23.25;41.67;101152.98;108283;1276;21984;-59
2023/08/15 03:04:01;;;;;;;7.60;5.00;;;;;;;23.25;41.72;101157.30;108283;1280;21988;-73
2023/08/15 03:06:27;;;;;;;10.80;5.80;;;;;;;23.26;41.85;101152.41;108355;1277;21989;-73
2023/08/15 03:08:52;;;;;;;9.50;5.20;;;;;;;23.26;41.81;101154.19;108387;1273;22007;-73
2023/08/15 03:11:18;;;;;;;10.40;6.20;;;;;;;23.27;41.79;101154.14;108339;1282;22043;-72
2023/08/15 03:13:44;;;;;;;12.10;6.00;;;;;;;23.27;41.97;101153.94;108387;1277;22205;-73
2023/08/15 03:16:09;;;;;;;12.90;5.80;;;;;;;23.27;42.06;101152.70;108320;1273;22021;-66
2023/08/15 03:18:35;;;;;;;10.30;5.50;;;;;;;23.29;42.20;101151.17;108280;1280;21991;-59
2023/08/15 03:21:03;;;;;;;10.10;5.10;;;;;;;23.30;42.17;101150.37;108226;1283;21995;-72
2023/08/15 03:23:29;;;;;;;8.60;5.30;;;;;;;23.34;42.42;101145.73;108320;1280;22027;-72
2023/08/15 03:25:59;;;;;;;8.80;6.00;;;;;;;23.40;42.67;101148.95;108332;1283;21998;-59
2023/08/15 03:28:24;;;;;;;15.80;6.30;;;;;;;23.46;42.78;101144.69;108326;1279;21990;-72
2023/08/15 03:30:50;;;;;;;11.10;6.30;;;;;;;23.54;42.92;101144.30;108084;1282;21986;-59
2023/08/15 03:33:16;;;;;;;8.10;5.70;;;;;;;23.60;42.98;101148.61;108190;1279;22028;-59
2023/08/15 03:35:48;;;;;;;8.70;5.60;;;;;;;23.66;42.97;101149.52;108268;1279;21986;-71
2023/08/15 03:38:15;;;;;;;11.90;5.70;;;;;;;23.73;43.12;101148.61;108344;1283;21991;-58
2023/08/15 03:40:44;;;;;;;9.70;5.90;;;;;;;23.81;43.12;101154.09;108329;1283;22551;-59
2023/08/15 03:43:10;;;;;;;14.20;6.10;;;;;;;23.88;43.03;101155.80;108277;1275;25094;-72
2023/08/15 03:45:36;;;;;;;8.80;5.80;;;;;;;23.95;43.07;101162.80;108176;1279;22027;-60
2023/08/15 03:48:03;;;;;;;12.60;6.80;;;;;;;24.03;42.94;101168.84;108198;1280;22007;-72
2023/08/15 03:50:37;;;;;;;10.80;6.10;;;;;;;24.09;43.04;101167.96;108281;1279;21983;-58
2023/08/15 03:53:03;;;;;;;13.30;5.80;;;;;;;24.15;43.14;101165.48;108312;1283;21996;-58
2023/08/15 03:55:29;;;;;;;9.90;5.90;;;;;;;24.21;42.97;101166.56;108260;1279;22254;-71
2023/08/15 03:57:55;;;;;;;12.00;6.20;;;;;;;24.27;42.95;101167.83;108283;1276;21996;-67
2023/08/15 04:00:21;;;;;;;10.00;5.90;;;;;;;24.34;42.99;101168.88;108255;1283;21987;-71
2023/08/15 04:02:47;;;;;;;10.30;5.80;;;;;;;24.40;43.03;101169.42;108252;1283;21945;-72
2023/08/15 04:05:12;;;;;;;9.20;5.70;;;;;;;24.45;43.01;101168.76;108291;1283;21995;-72
2023/08/15 04:07:39;;;;;;;11.70;5.90;;;;;;;24.52;43.20;101166.95;108316;1283;22036;-59
2023/08/15 04:10:05;;;;;;;9.60;5.90;;;;;;;24.58;43.10;101163.71;108093;1279;23571;-72
2023/08/15 04:12:33;;;;;;;12.20;6.70;;;;;;;24.64;43.17;101163.87;108093;1284;22563;-70
2023/08/15 04:14:59;;;;;;;13.50;6.00;;;;;;;24.72;43.32;101162.38;108130;1284;22001;-58
2023/08/15 04:17:25;;;;;;;12.50;5.70;;;;;;;24.79;43.41;101160.91;108159;1279;22949;-71
2023/08/15 04:19:51;;;;;;;8.50;6.10;;;;;;;24.87;43.43;101159.00;108294;1277;22057;-59
2023/08/15 04:22:17;;;;;;;9.10;5.90;;;;;;;24.96;43.37;101158.78;108300;1283;22760;-59
2023/08/15 04:24:42;;;;;;;13.20;6.10;;;;;;;25.07;43.48;101158.89;108275;1279;21984;-61
2023/08/15 04:27:08;;;;;;;9.20;6.10;;;;;;;25.17;43.42;101162.55;108245;1276;22002;-59
2023/08/15 04:29:34;;;;;;;10.70;6.70;;;;;;;25.28;43.21;101159.55;108232;1276;22007;-59
2023/08/15 04:31:59;;;;;;;11.20;6.30;;;;;;;25.40;43.25;101155.43;108260;1283;21977;-72
2023/08/15 04:34:25;;;;;;;10.90;6.00;;;;;;;25.52;43.17;101153.44;108246;1276;21979;-71
2023/08/15 04:36:51;;;;;;;7.90;5.80;;;;;;;25.66;43.27;101157.75;108335;1283;21986;-71
2023/08/15 04:39:17;;;;;;;10.00;5.60;;;;;;;25.79;43.18;101153.70;108274;1279;21987;-72
2023/08/15 04:41:43;;;;;;;11.90;5.70;;;;;;;25.93;43.10;101147.95;108292;1283;21954;-63
2023/08/15 04:44:10;;;;;;;7.60;5.80;;;;;;;26.08;43.09;101147.69;108316;1283;23049;-70
2023/08/15 04:46:36;;;;;;;9.20;6.30;;;;;;;26.22;43.00;101146.98;108324;1277;21997;-67
2023/08/15 04:49:02;;;;;;;9.10;6.30;;;;;;;26.36;42.94;101146.98;108248;1283;21993;-59
2023/08/15 04:51:27;;;;;;;7.90;5.70;;;;;;;26.50;42.78;101144.93;108265;1274;21997;-59
2023/08/15 04:53:53;;;;;;;7.90;5.50;;;;;;;26.65;42.69;101146.09;108285;1271;22026;-59
2023/08/15 04:56:18;;;;;;;14.30;5.80;;;;;;;26.80;42.79;101149.58;108271;1273;21957;-71
2023/08/15 04:58:44;;;;;;;9.70;6.10;;;;;;;26.97;42.60;101152.80;108309;1283;21984;-71
2023/08/15 05:01:10;;;;;;;8.10;5.50;;;;;;;27.14;42.60;101159.34;108138;1279;21993;-71
2023/08/15 05:03:35;;;;;;;13.50;6.10;;;;;;;27.33;42.48;101158.05;108206;1284;21984;-69
2023/08/15 05:06:02;;;;;;;10.90;5.70;;;;;;;27.51;42.06;101157.34;108262;1283;21997;-58
2023/08/15 05:08:28;;;;;;;11.20;5.50;;;;;;;27.76;42.03;101156.64;108300;1278;21984;-57
2023/08/15 05:10:54;;;;;;;9.60;6.00;;;;;;;28.04;41.90;101158.17;108236;1283;21983;-72
2023/08/15 05:13:20;;;;;;;17.60;6.00;;;;;;;28.27;41.49;101156.02;108296;1280;22000;-72
2023/08/15 05:15:46;;;;;;;9.00;6.20;;;;;;;28.46;41.37;101151.48;108300;1276;22096;-58
2023/08/15 05:18:13;;;;;;;10.00;5.50;;;;;;;28.66;41.37;101149.08;108197;1276;22050;-73
2023/08/15 05:20:38;;;;;;;7.10;5.70;;;;;;;28.86;41.11;101146.46;108182;1277;21997;-58
2023/08/15 05:23:04;;;;;;;11.80;5.20;;;;;;;29.05;41.06;101147.74;108148;1279;22000;-57
2023/08/15 05:25:29;;;;;;;9.00;5.70;;;;;;;29.22;40.67;101153.11;108209;1276;22366;-72
2023/08/15 05:27:56;;;;;;;11.90;5.40;;;;;;;29.39;40.47;101153.02;108299;1283;21994;-74
2023/08/15 05:30:21;;;;;;;8.70;5.60;;;;;;;29.57;40.48;101150.85;108295;1280;21986;-58
2023/08/15 05:32:47;;;;;;;8.00;5.60;;;;;;;29.77;40.37;101146.73;108268;1277;21984;-74
2023/08/15 05:35:13;;;;;;;6.70;5.30;;;;;;;29.97;40.20;101146.05;108309;1283;21984;-71
2023/08/15 05:37:38;;;;;;;9.40;5.20;;;;;;;30.17;40.07;101140.05;108260;1278;21986;-71
2023/08/15 05:40:04;;;;;;;8.40;5.70;;;;;;;30.37;39.79;101140.71;108263;1277;21990;-71
2023/08/15 05:42:31;;;;;;;9.10;5.70;;;;;;;30.55;39.63;101138.89;108306;1279;21992;-71
2023/08/15 05:44:56;;;;;;;8.00;5.40;;;;;;;30.72;39.32;101137.86;108269;1273;21990;-59
2023/08/15 05:47:22;;;;;;;7.90;5.10;;;;;;;30.85;39.09;101141.06;108237;1283;22261;-71
2023/08/15 05:49:47;;;;;;;7.40;4.90;;;;;;;31.03;39.02;101142.98;108254;1283;21983;-59
2023/08/15 05:52:13;;;;;;;8.00;5.20;;;;;;;31.21;38.74;101145.02;108275;1277;21953;-75
2023/08/15 05:54:38;;;;;;;11.20;5.10;;;;;;;31.42;38.76;101148.30;108250;1276;21998;-71
2023/08/15 05:57:04;;;;;;;7.20;5.00;;;;;;;31.63;38.57;101150.94;108269;1283;22002;-73
2023/08/15 05:59:30;;;;;;;6.60;5.10;;;;;;;31.83;38.37;101157.52;108287;1283;22035;-70
2023/08/15 06:01:55;;;;;;;9.00;5.60;;;;;;;32.05;38.32;101165.51;108287;1277;21986;-71
2023/08/15 06:04:21;;;;;;;7.50;5.20;;;;;;;32.28;38.08;101163.63;108246;1283;21983;-72
2023/08/15 06:06:47;;;;;;;5.70;5.10;;;;;;;32.49;37.89;101165.17;108259;1283;21995;-74
2023/08/15 06:09:12;;;;;;;7.60;5.60;;;;;;;32.70;37.65;101166.10;108326;1276;22304;-72
2023/08/15 06:11:38;;;;;;;10.10;5.30;;;;;;;32.91;37.52;101161.23;108236;1279;21986;-73
2023/08/15 06:14:04;;;;;;;7.60;5.40;;;;;;;33.12;37.32;101162.54;108286;1277;22024;-59
2023/08/15 06:16:29;;;;;;;10.50;6.00;;;;;;;33.31;37.02;101163.40;108294;1276;21997;-59
2023/08/15 06:18:55;;;;;;;8.60;5.40;;;;;;;33.49;36.71;101161.52;108291;1279;21996;-59
2023/08/15 06:21:21;;;;;;;8.30;4.80;;;;;;;33.67;36.53;101153.61;108100;1283;23632;-60
2023/08/15 06:23:46;;;;;;;8.80;5.50;;;;;;;33.83;36.18;101152.34;108125;1279;21984;-71
2023/08/15 06:26:12;;;;;;;7.90;5.10;;;;;;;34.00;36.05;101153.13;108274;1283;21987;-60
2023/08/15 06:28:38;;;;;;;8.50;4.80;;;;;;;34.16;36.02;101159.14;108175;1283;21994;-59
2023/08/15 06:31:03;;;;;;;6.50;5.10;;;;;;;34.34;35.91;101161.35;108264;1278;21989;-60
2023/08/15 06:33:29;;;;;;;8.50;5.20;;;;;;;34.49;35.46;101161.34;108313;1279;22000;-59
2023/08/15 06:35:54;;;;;;;6.80;4.70;;;;;;;34.60;35.25;101157.14;108307;1274;22024;-59
2023/08/15 06:38:20;;;;;;;7.30;5.10;;;;;;;34.71;35.02;101150.33;108296;1276;22062;-59
2023/08/15 06:40:46;;;;;;;11.30;5.40;;;;;;;34.87;35.05;101148.83;108299;1283;22000;-72
2023/08/15 06:43:11;;;;;;;9.20;5.30;;;;;;;35.06;35.11;101150.71;108249;1276;21985;-59
2023/08/15 06:45:37;;;;;;;7.40;5.10;;;;;;;35.21;34.73;101150.84;108194;1276;22006;-64
2023/08/15 06:48:05;;;;;;;9.20;5.30;;;;;;;35.36;34.53;101152.93;108210;1276;21984;-60
2023/08/15 06:50:31;;;;;;;8.40;5.00;;;;;;;35.53;34.38;101154.60;108242;1278;21996;-60
2023/08/15 06:52:57;;;;;;;7.30;4.90;;;;;;;35.71;34.19;101160.19;108203;1280;21995;-61
2023/08/15 06:55:23;;;;;;;6.80;4.50;;;;;;;35.92;34.00;101164.52;108257;1282;21993;-70
2023/08/15 06:57:49;;;;;;;10.80;4.90;;;;;;;36.13;33.93;101168.39;108291;1276;21984;-60
2023/08/15 07:00:16;;;;;;;8.10;4.10;;;;;;;36.34;33.48;101171.41;108293;1279;21998;-60
2023/08/15 07:02:42;;;;;;;5.70;3.90;;;;;;;36.52;33.26;101165.65;108303;1283;22022;-74
2023/08/15 07:05:10;;;;;;;6.40;3.20;;;;;;;36.71;33.05;101161.39;108283;1277;22023;-60
2023/08/15 07:07:37;;;;;;;7.60;3.60;;;;;;;36.89;32.61;101158.26;108242;1284;22096;-73
2023/08/15 07:10:06;;;;;;;9.20;4.00;;;;;;;37.05;32.15;101154.14;108302;1284;21984;-60
2023/08/15 07:12:33;;;;;;;8.50;3.90;;;;;;;37.22;32.00;101154.60;108227;1283;22112;-60
2023/08/15 07:14:58;;;;;;;5.90;3.80;;;;;;;37.37;31.89;101157.60;108312;1283;21987;-71
2023/08/15 07:17:24;;;;;;;6.80;3.40;;;;;;;37.51;31.72;101162.04;108300;1284;21985;-61
2023/08/15 07:19:50;;;;;;;7.90;3.70;;;;;;;37.67;31.67;101165.78;108247;1273;21994;-60
2023/08/15 07:22:15;;;;;;;6.40;3.70;;;;;;;37.77;31.15;101167.67;108228;1279;22129;-70
2023/08/15 07:24:41;;;;;;;5.20;3.80;;;;;;;37.83;31.12;101167.30;108258;1283;22001;-61
2023/08/15 07:27:06;;;;;;;4.90;3.30;;;;;;;37.96;31.07;101163.30;108288;1283;21998;-70
2023/08/15 07:29:32;;;;;;;5.70;3.40;;;;;;;38.09;31.01;101168.20;108173;1284;22005;-60
2023/08/15 07:31:58;;;;;;;6.80;3.30;;;;;;;38.25;30.84;101171.67;108122;1285;21987;-61
2023/08/15 07:34:23;;;;;;;6.60;3.50;;;;;;;38.42;30.73;101171.35;108142;1284;23481;-70
2023/08/15 07:36:49;;;;;;;9.10;3.20;;;;;;;38.59;30.60;101179.18;108223;1279;22453;-61
2023/08/15 07:39:14;;;;;;;5.50;3.70;;;;;;;38.74;30.33;101179.53;108210;1283;22024;-70
2023/08/15 07:41:41;;;;;;;6.20;3.80;;;;;;;38.89;30.11;101179.27;108237;1277;21979;-63
2023/08/15 07:44:07;;;;;;;8.50;3.80;;;;;;;39.04;29.99;101179.30;108209;1283;22001;-62
2023/08/15 07:46:33;;;;;;;4.80;3.20;;;;;;;39.22;30.01;101184.56;108167;1281;23052;-61
2023/08/15 07:48:58;;;;;;;5.00;2.70;;;;;;;39.40;29.62;101184.25;108151;1277;22046;-70
2023/08/15 07:51:24;;;;;;;5.70;3.30;;;;;;;39.53;29.29;101180.83;108233;1283;22161;-62
2023/08/15 07:53:50;;;;;;;5.70;3.30;;;;;;;39.62;29.28;101176.23;108286;1283;22244;-61
2023/08/15 07:56:15;;;;;;;6.40;2.90;;;;;;;39.75;29.12;101171.40;108221;1283;22000;-61
2023/08/15 07:58:41;;;;;;;6.40;3.50;;;;;;;39.91;29.07;101171.91;108230;1283;21993;-71
2023/08/15 08:01:06;;;;;;;4.50;3.10;;;;;;;40.07;28.90;101170.15;108216;1283;21981;-71
2023/08/15 08:03:32;;;;;;;5.10;3.20;;;;;;;40.20;28.76;101175.23;108211;1283;22003;-70
2023/08/15 08:05:58;;;;;;;4.00;2.90;;;;;;;40.31;28.36;101176.33;108247;1276;22005;-62
2023/08/15 08:08:24;;;;;;;6.20;3.10;;;;;;;40.40;28.39;101175.27;108176;1283;21986;-70
2023/08/15 08:10:49;;;;;;;6.20;2.80;;;;;;;40.51;28.22;101169.50;108221;1283;21974;-71
2023/08/15 08:13:17;;;;;;;6.20;3.00;;;;;;;40.63;28.22;101169.11;108242;1279;21987;-66
2023/08/15 08:15:43;;;;;;;4.50;2.90;;;;;;;40.79;27.75;101165.94;108245;1283;22499;-60
2023/08/15 08:18:08;;;;;;;5.80;3.20;;;;;;;40.94;27.69;101166.73;108269;1279;22029;-71
2023/08/15 08:20:34;;;;;;;5.40;2.70;;;;;;;41.09;27.52;101164.67;108213;1277;21983;-61
2023/08/15 08:23:00;;;;;;;4.00;3.00;;;;;;;41.24;27.44;101165.84;108251;1279;22001;-65
2023/08/15 08:25:26;;;;;;;6.20;3.00;;;;;;;41.37;26.61;101161.86;108205;1276;22167;-62
2023/08/15 08:27:51;;;;;;;5.10;3.10;;;;;;;41.47;26.94;101157.02;108283;1279;21987;-61
2023/08/15 08:30:19;;;;;;;7.30;3.00;;;;;;;41.60;26.77;101155.82;108377;1284;22451;-72
2023/08/15 08:32:44;;;;;;;7.00;3.00;;;;;;;41.74;26.69;101155.48;109415;1276;23740;-60
2023/08/15 08:35:11;;;;;;;5.60;3.10;;;;;;;41.90;26.65;101153.23;108176;1276;22169;-60
2023/08/15 08:37:37;;;;;;;5.10;3.00;;;;;;;42.03;26.45;101146.61;108256;1283;21999;-63
2023/08/15 08:40:04;;;;;;;6.10;3.30;;;;;;;42.16;26.09;101143.28;108236;1272;22004;-74
2023/08/15 08:42:30;;;;;;;4.70;2.60;;;;;;;42.25;25.79;101145.55;108251;1276;21986;-60
2023/08/15 08:44:56;;;;;;;4.20;2.60;;;;;;;42.36;26.03;101149.90;108207;1284;21966;-71
2023/08/15 08:47:25;;;;;;;5.80;2.50;;;;;;;42.47;25.92;101152.25;108025;1283;23056;-60
2023/08/15 08:49:50;;;;;;;8.70;2.80;;;;;;;42.59;25.70;101158.81;108220;1271;21994;-72
2023/08/15 08:52:16;;;;;;;5.50;3.10;;;;;;;42.72;25.71;101155.64;108078;1279;22022;-71
2023/08/15 08:54:42;;;;;;;9.10;3.00;;;;;;;42.84;25.53;101155.83;108179;1271;22024;-70
2023/08/15 08:57:08;;;;;;;4.80;2.70;;;;;;;42.92;25.19;101153.80;108186;1280;21979;-70
2023/08/15 08:59:35;;;;;;;4.30;2.90;;;;;;;42.91;24.79;101150.06;108188;1280;21993;-59
2023/08/15 09:02:01;;;;;;;5.20;3.00;;;;;;;42.90;24.66;101149.08;108252;1283;21993;-71
2023/08/15 09:04:26;;;;;;;3.50;2.80;;;;;;;42.92;24.81;101147.38;108204;1279;22034;-60
2023/08/15 09:06:52;;;;;;;5.60;3.30;;;;;;;42.94;24.25;101140.65;108189;1278;22041;-70
2023/08/15 09:09:19;;;;;;;5.70;3.20;;;;;;;42.89;24.61;101140.73;108077;1282;21977;-59
2023/08/15 09:11:46;;;;;;;8.70;2.90;;;;;;;42.98;24.80;101142.13;108198;1283;21986;-68
2023/08/15 09:14:11;;;;;;;5.60;3.20;;;;;;;43.02;24.08;101143.95;108136;1283;22026;-70
2023/08/15 09:16:45;;;;;;;5.10;3.10;;;;;;;43.06;24.36;101136.19;108077;1284;22199;-69
2023/08/15 09:19:11;;;;;;;4.70;2.70;;;;;;;43.23;24.44;101127.71;108185;1273;23626;-69
2023/08/15 09:21:36;;;;;;;5.20;3.40;;;;;;;43.44;24.33;101129.73;108209;1284;21986;-69
2023/08/15 09:24:03;;;;;;;5.50;3.10;;;;;;;43.63;24.25;101131.64;108217;1272;22043;-70
2023/08/15 09:26:33;;;;;;;4.90;3.00;;;;;;;43.80;24.06;101126.76;108214;1283;21993;-61
2023/08/15 09:28:58;;;;;;;6.30;3.20;;;;;;;43.99;23.90;101121.71;108192;1283;22147;-70
2023/08/15 09:31:24;;;;;;;8.70;3.50;;;;;;;44.16;23.73;101119.41;108266;1277;21994;-59
2023/08/15 09:33:49;;;;;;;4.50;3.30;;;;;;;44.30;23.45;101114.59;108189;1284;21995;-68
2023/08/15 09:36:15;;;;;;;8.00;3.80;;;;;;;44.38;23.49;101112.20;108156;1284;22453;-69
2023/08/15 09:38:41;;;;;;;6.90;4.50;;;;;;;44.48;23.33;101118.08;108102;1284;21995;-59
2023/08/15 09:41:11;;;;;;;8.80;5.10;;;;;;;44.62;22.94;101119.09;108183;1273;21985;-59
2023/08/15 09:43:49;;;;;;;8.80;5.00;;;;;;;44.62;22.75;101119.20;108192;1280;22039;-70
2023/08/15 09:46:14;;;;;;;25.80;7.50;;;;;;;44.56;22.67;101112.04;108171;1279;21997;-71
2023/08/15 09:48:40;;;;;;;25.10;10.80;;;;;;;44.60;22.82;101117.77;108141;1284;21996;-59
2023/08/15 09:51:06;;;;;;;33.60;16.40;;;;;;;44.61;22.49;101116.55;108108;1285;21993;-70
2023/08/15 09:53:31;;;;;;;49.30;20.80;;;;;;;44.63;22.48;101119.65;108170;1278;22004;-69
2023/08/15 09:55:57;;;;;;;35.70;21.50;;;;;;;44.73;22.58;101111.52;108068;1279;22204;-60
2023/08/15 09:58:22;;;;;;;29.60;21.60;;;;;;;44.86;22.52;101106.82;108112;1284;22457;-73
2023/08/15 10:00:51;;;;;;;28.00;23.90;;;;;;;44.95;22.41;101106.10;108158;1276;21980;-64
2023/08/15 10:03:20;;;;;;;27.00;21.20;;;;;;;45.02;22.40;101103.76;108247;1284;21987;-60
2023/08/15 10:05:48;;;;;;;21.70;17.60;;;;;;;45.14;22.20;101103.25;108113;1284;21961;-59
2023/08/15 10:08:13;;;;;;;14.10;9.70;;;;;;;45.23;21.96;101105.85;108230;1277;23471;-70
2023/08/15 10:10:39;;;;;;;11.20;7.90;;;;;;;45.26;21.90;101108.67;108114;1272;22085;-60
2023/08/15 10:13:05;;;;;;;14.20;7.40;;;;;;;45.30;21.78;101100.13;108149;1284;21987;-69
2023/08/15 10:15:31;;;;;;;11.30;8.00;;;;;;;45.18;21.68;101098.55;108203;1284;22459;-70
2023/08/15 10:17:57;;;;;;;10.80;8.40;;;;;;;45.17;21.57;101096.35;108209;1282;21998;-60
2023/08/15 10:20:23;;;;;;;11.50;9.20;;;;;;;45.20;21.60;101088.71;108202;1285;22010;-60
2023/08/15 10:22:51;;;;;;;13.60;10.80;;;;;;;45.20;21.40;101081.56;108119;1272;22009;-60
2023/08/15 10:25:22;;;;;;;13.40;9.60;;;;;;;45.29;21.81;101081.77;108200;1283;23771;-72
2023/08/15 10:27:49;;;;;;;8.60;5.70;;;;;;;45.37;21.62;101078.33;108184;1279;21990;-59
2023/08/15 10:30:30;;;;;;;8.60;5.80;;;;;;;45.48;21.45;101076.52;108200;1273;21992;-60
2023/08/15 10:32:59;;;;;;;10.20;5.40;;;;;;;45.61;21.31;101075.05;108208;1278;21999;-60
2023/08/15 10:35:25;;;;;;;9.20;5.20;;;;;;;45.73;21.07;101069.88;108190;1283;22457;-71
2023/08/15 10:37:50;;;;;;;4.20;3.40;;;;;;;45.85;21.09;101071.66;108058;1279;21995;-69
2023/08/15 10:40:17;;;;;;;8.60;3.30;;;;;;;45.89;20.75;101069.73;108068;1284;22738;-67
2023/08/15 10:43:02;;;;;;;5.50;3.30;;;;;;;45.79;20.90;101060.63;108128;1284;23610;-69
2023/08/15 10:45:35;;;;;;;5.80;3.20;;;;;;;45.82;21.00;101056.65;108138;1284;22773;-68
2023/08/15 10:48:01;;;;;;;5.10;2.90;;;;;;;45.94;20.78;101050.98;108245;1279;23797;-59
2023/08/15 10:50:26;;;;;;;5.60;2.50;;;;;;;46.07;20.60;101048.55;108178;1274;22005;-59
2023/08/15 10:52:58;;;;;;;3.50;2.70;;;;;;;46.19;20.52;101047.80;108020;1283;21986;-61
2023/08/15 10:55:29;;;;;;;6.10;2.60;;;;;;;46.30;20.44;101044.65;108153;1279;21991;-60
2023/08/15 10:57:55;;;;;;;4.20;2.80;;;;;;;46.43;20.34;101044.80;108268;1280;21995;-69
2023/08/15 11:00:22;;;;;;;4.90;2.80;;;;;;;46.54;20.27;101045.68;108111;1284;22001;-69
2023/08/15 11:02:49;;;;;;;4.40;2.60;;;;;;;46.58;19.98;101041.48;108251;1280;22026;-67
2023/08/15 11:05:14;;;;;;;3.30;2.40;;;;;;;46.49;20.02;101042.27;108247;1276;21978;-72
2023/08/15 11:07:43;;;;;;;4.10;2.70;;;;;;;46.44;20.03;101045.65;108118;1283;23623;-68
2023/08/15 11:10:09;;;;;;;7.60;3.30;;;;;;;46.50;20.02;101039.29;108250;1284;21992;-68